Time;durP1;ratioP1;P1;durP2;ratioP2;P2;SDS_P1;SDS_P2;PMS_P1;PMS_P2;Temp;Humidity;BMP_temperature;BMP_pressure;BME280_temperature;BME280_humidity;BME280_pressure;Samples;Min_cycle;Max_cycle;Signal;HPM_P1;HPM_P2
2023/01/18 00:06:38;;;;;;;9.20;4.00;;;;;;;6.07;66.95;96400.30;232798;1206;139048;-63
2023/01/18 00:13:48;;;;;;;6.90;4.10;;;;;;;5.96;66.78;96399.16;233016;1206;138649;-63
2023/01/18 00:20:27;;;;;;;6.90;4.00;;;;;;;5.89;66.54;96401.49;232893;1202;139676;-66
2023/01/18 00:27:25;;;;;;;6.40;4.00;;;;;;;5.78;66.03;96405.77;233866;1199;139315;-66
2023/01/18 00:35:06;;;;;;;8.00;4.90;;;;;;;5.62;65.66;96404.70;234140;1200;139412;-64
2023/01/18 00:56:42;;;;;;;;;;;;;;;;;;;;;
2023/01/18 01:11:29;;;;;;;;;;;;;;;;;;;;;
2023/01/18 01:49:59;;;;;;;;;;;;;;;;;;;;;
2023/01/18 01:56:43;;;;;;;;;;;;;;;;;;;;;
2023/01/18 02:10:49;;;;;;;3.90;3.20;;;;;;;4.55;67.74;96315.01;232097;1200;1667735;-64
2023/01/18 02:32:00;;;;;;;;;;;;;;;;;;;;;
2023/01/18 02:38:24;;;;;;;;;;;;;;;;;;;;;
2023/01/18 03:04:51;;;;;;;;;;;;;;;;;;;;;
2023/01/18 03:12:21;;;;;;;4.20;2.70;;;;;;;4.61;68.57;96270.84;234088;1199;140092;-64
2023/01/18 03:37:45;;;;;;;2.70;2.40;;;;;;;4.55;68.94;96272.92;234184;1197;138665;-63
2023/01/18 03:44:12;;;;;;;;;;;;;;;;;;;;;
2023/01/18 04:02:25;;;;;;;;;;;;;;;;;;;;;
2023/01/18 04:08:25;;;;;;;3.70;2.70;;;;;;;4.79;69.08;96206.59;234092;1198;137972;-64
2023/01/18 04:15:06;;;;;;;3.70;2.50;;;;;;;4.81;68.63;96201.88;234263;1199;138335;-65
2023/01/18 04:35:42;;;;;;;;;;;;;;;;;;;;;
2023/01/18 05:26:45;;;;;;;4.70;3.70;;;;;;;4.82;69.00;96219.02;230310;1211;644942;-64
2023/01/18 05:32:42;;;;;;;5.20;3.40;;;;;;;4.70;69.15;96231.77;231987;1195;138838;-63
2023/01/18 05:38:51;;;;;;;82.30;59.80;;;;;;;4.77;69.86;96216.40;233014;1196;138859;-64
2023/01/18 05:45:16;;;;;;;7.00;5.40;;;;;;;4.85;69.59;96225.27;234515;1195;138678;-63
2023/01/18 05:51:33;;;;;;;108.10;75.30;;;;;;;4.77;69.52;96234.56;234453;1195;139923;-67
2023/01/18 05:58:01;;;;;;;6.00;4.30;;;;;;;4.78;70.14;96215.17;234741;1195;141941;-67
2023/01/18 06:04:27;;;;;;;4.40;3.80;;;;;;;4.78;69.97;96184.25;234618;1193;140033;-64
2023/01/18 06:10:51;;;;;;;7.10;4.30;;;;;;;4.87;69.40;96185.36;234570;1196;139315;-65
2023/01/18 06:17:07;;;;;;;6.00;4.70;;;;;;;4.90;69.65;96200.25;234743;1194;139574;-66
2023/01/18 06:22:32;;;;;;;156.60;101.10;;;;;;;4.99;71.73;96223.84;234697;1193;139286;-65
2023/01/18 06:28:40;;;;;;;;;;;;;;;;;;;;;
2023/01/18 06:35:09;;;;;;;28.90;19.00;;;;;;;5.30;69.27;96203.60;234588;1193;139077;-66
2023/01/18 06:41:14;;;;;;;7.80;5.20;;;;;;;5.22;68.78;96225.66;234511;1194;139060;-65
2023/01/18 06:47:18;;;;;;;;;;;;;;;;;;;;;
2023/01/18 06:53:13;;;;;;;;;;;;;;;;;;;;;
2023/01/18 06:58:54;;;;;;;;;;;;;;;;;;;;;
2023/01/18 07:13:39;;;;;;;11.40;6.70;;;;;;;5.25;69.13;96246.48;234231;1197;139685;-66
2023/01/18 07:27:25;;;;;;;8.80;6.20;;;;;;;5.17;69.26;96269.83;233311;1203;139254;-64
2023/01/18 07:47:45;;;;;;;23.20;15.10;;;;;;;5.11;69.49;96264.34;233803;1197;139297;-65
2023/01/18 07:55:08;;;;;;;13.50;8.20;;;;;;;5.08;69.26;96276.69;234421;1195;138580;-64
2023/01/18 08:30:55;;;;;;;;;;;;;;;;;;;;;
2023/01/18 08:45:18;;;;;;;16.70;9.30;;;;;;;4.82;69.42;96286.06;238663;1183;138559;-64
2023/01/18 09:05:10;;;;;;;;;;;;;;;;;;;;;
2023/01/18 09:48:36;;;;;;;;;;;;;;;;;;;;;
2023/01/18 10:16:41;;;;;;;15.40;10.80;;;;;;;5.06;69.63;96360.18;237189;1181;139106;-64
2023/01/18 10:22:40;;;;;;;16.40;10.10;;;;;;;5.28;69.67;96358.91;237977;1186;140046;-65
2023/01/18 10:36:42;;;;;;;9.80;7.20;;;;;;;5.53;68.35;96392.81;237254;1184;138398;-65
2023/01/18 11:02:18;;;;;;;9.40;6.80;;;;;;;5.41;68.71;96421.21;230765;1209;635808;-66
2023/01/18 11:08:35;;;;;;;;;;;;;;;;;;;;;
2023/01/18 11:15:58;;;;;;;;;;;;;;;;;;;;;
2023/01/18 11:42:49;;;;;;;;;;;;;;;;;;;;;
2023/01/18 11:49:34;;;;;;;16.60;11.10;;;;;;;5.64;68.49;96493.52;231924;1199;138847;-64
2023/01/18 11:56:16;;;;;;;17.60;10.90;;;;;;;5.59;68.22;96506.58;231413;1205;139521;-65
2023/01/18 12:10:17;;;;;;;16.80;11.70;;;;;;;5.70;68.34;96518.54;230726;1209;139284;-66
2023/01/18 12:16:43;;;;;;;15.80;11.40;;;;;;;5.65;68.54;96532.09;232650;1202;139864;-64
2023/01/18 12:23:12;;;;;;;16.10;10.60;;;;;;;5.69;68.36;96557.49;234021;1201;139753;-64
2023/01/18 12:29:26;;;;;;;14.90;10.40;;;;;;;5.57;68.47;96566.75;233918;1200;139060;-65
2023/01/18 12:49:43;;;;;;;;;;;;;;;;;;;;;
2023/01/18 12:55:27;;;;;;;14.10;9.10;;;;;;;5.80;68.34;96605.48;234959;1194;139148;-64
2023/01/18 13:22:38;;;;;;;;;;;;;;;;;;;;;
2023/01/18 13:30:29;;;;;;;17.50;11.90;;;;;;;6.06;66.35;96717.27;234013;1197;139607;-66
2023/01/18 13:37:23;;;;;;;;;;;;;;;;;;;;;
2023/01/18 13:43:33;;;;;;;;;;;;;;;;;;;;;
2023/01/18 13:49:48;;;;;;;20.00;12.50;;;;;;;5.85;67.49;96780.70;234299;1196;139563;-65
2023/01/18 13:56:28;;;;;;;17.70;12.00;;;;;;;5.78;67.69;96806.24;234794;1193;140053;-65
2023/01/18 14:02:00;;;;;;;;;;;;;;;;;;;;;
2023/01/18 14:08:33;;;;;;;;;;;;;;;;;;;;;
2023/01/18 14:14:16;;;;;;;9.40;6.90;;;;;;;5.72;68.60;96837.83;234701;1193;139613;-67
2023/01/18 14:20:49;;;;;;;8.90;6.40;;;;;;;5.69;68.53;96858.46;234759;1194;139417;-66
2023/01/18 14:26:47;;;;;;;7.50;4.80;;;;;;;5.56;68.67;96876.55;234652;1192;139071;-67
2023/01/18 14:32:31;;;;;;;6.90;5.00;;;;;;;5.52;68.88;96885.31;234679;1193;139920;-67
2023/01/18 14:38:26;;;;;;;6.90;4.60;;;;;;;5.58;69.17;96891.13;234804;1192;139275;-66
2023/01/18 14:44:22;;;;;;;6.40;4.30;;;;;;;5.64;68.80;96898.23;234723;1195;139240;-68
2023/01/18 14:50:28;;;;;;;;;;;;;;;;;;;;;
2023/01/18 14:56:33;;;;;;;8.20;4.80;;;;;;;5.51;69.14;96933.19;234656;1196;139663;-68
2023/01/18 15:02:32;;;;;;;8.90;5.30;;;;;;;5.41;69.43;96943.41;234783;1192;139153;-66
2023/01/18 15:08:42;;;;;;;8.50;5.00;;;;;;;5.42;69.72;96965.48;234716;1192;138921;-66
2023/01/18 15:15:18;;;;;;;9.80;5.40;;;;;;;5.51;69.48;96981.57;234654;1192;139689;-68
2023/01/18 15:21:26;;;;;;;6.90;4.90;;;;;;;5.52;69.53;96996.48;234863;1193;139414;-64
2023/01/18 15:28:26;;;;;;;;;;;;;;;;;;;;;
2023/01/18 15:43:42;;;;;;;10.90;6.70;;;;;;;5.68;68.81;97032.73;234030;1196;138536;-64
2023/01/18 15:50:43;;;;;;;;;;;;;;;;;;;;;
2023/01/18 15:57:09;;;;;;;11.70;7.50;;;;;;;5.67;68.81;97046.80;234378;1193;139122;-67
2023/01/18 16:03:32;;;;;;;13.30;8.60;;;;;;;5.68;68.56;97055.20;234776;1193;139966;-67
2023/01/18 16:09:19;;;;;;;13.80;8.40;;;;;;;5.68;68.93;97055.23;234751;1193;142328;-71
2023/01/18 16:15:12;;;;;;;13.70;8.90;;;;;;;5.76;68.62;97045.83;234607;1196;140293;-66
2023/01/18 16:20:35;;;;;;;15.80;10.10;;;;;;;5.89;68.21;97054.30;234690;1193;139580;-67
2023/01/18 16:26:06;;;;;;;15.00;9.90;;;;;;;5.94;67.86;97076.73;234638;1193;139325;-67
2023/01/18 16:32:12;;;;;;;;;;;;;;;;;;;;;
2023/01/18 16:38:03;;;;;;;;;;;;;;;;;;;;;
2023/01/18 16:43:49;;;;;;;;;;;;;;;;;;;;;
2023/01/18 16:49:19;;;;;;;15.80;10.70;;;;;;;6.05;67.53;97135.90;234798;1193;139078;-70
2023/01/18 16:55:01;;;;;;;16.80;10.80;;;;;;;6.07;67.50;97141.09;234854;1193;140030;-67
2023/01/18 17:01:29;;;;;;;43.60;28.30;;;;;;;6.11;67.48;97152.36;234885;1193;139075;-68
2023/01/18 17:07:44;;;;;;;19.70;11.80;;;;;;;6.12;67.57;97164.24;234718;1193;139877;-67
2023/01/18 17:13:30;;;;;;;16.10;11.10;;;;;;;6.18;67.41;97187.95;234695;1195;140184;-67
2023/01/18 17:19:40;;;;;;;16.50;10.80;;;;;;;6.22;67.53;97186.60;234916;1194;138865;-65
2023/01/18 17:32:47;;;;;;;;;;;;;;;;;;;;;
2023/01/18 17:38:15;;;;;;;20.30;11.60;;;;;;;6.23;67.22;97215.91;234618;1193;139411;-69
2023/01/18 17:44:43;;;;;;;19.50;11.80;;;;;;;6.20;67.11;97221.40;234633;1195;139217;-71
2023/01/18 17:50:21;;;;;;;;;;;;;;;;;;;;;
2023/01/18 17:56:17;;;;;;;86.70;53.20;;;;;;;6.22;67.27;97252.11;234638;1193;139715;-69
2023/01/18 18:01:55;;;;;;;25.20;15.30;;;;;;;6.31;67.40;97259.67;234675;1193;139666;-67
2023/01/18 18:08:04;;;;;;;22.90;14.20;;;;;;;6.37;66.52;97258.55;234856;1193;139913;-70
2023/01/18 18:13:57;;;;;;;24.20;13.70;;;;;;;6.45;66.17;97259.42;234692;1193;140385;-67
2023/01/18 18:19:56;;;;;;;20.20;13.00;;;;;;;6.44;65.80;97260.86;234760;1193;139451;-68
2023/01/18 18:25:55;;;;;;;23.00;12.90;;;;;;;6.39;65.65;97270.70;234783;1193;139926;-68
2023/01/18 18:32:14;;;;;;;22.20;11.90;;;;;;;6.30;65.21;97283.77;234910;1193;139271;-65
2023/01/18 18:37:43;;;;;;;21.20;12.70;;;;;;;6.23;64.99;97303.80;234672;1194;139101;-65
2023/01/18 18:43:07;;;;;;;20.30;13.00;;;;;;;6.25;64.75;97313.86;234681;1193;140650;-66
2023/01/18 18:48:24;;;;;;;81.80;52.00;;;;;;;6.22;64.85;97323.36;234813;1193;138875;-68
2023/01/18 18:53:38;;;;;;;37.20;23.20;;;;;;;6.19;64.67;97334.89;234730;1193;139352;-70
2023/01/18 19:02:37;;;;;;;;;;;;;;;;;;;;;
2023/01/18 19:09:54;;;;;;;;;;;;;;;;;;;;;
2023/01/18 19:15:35;;;;;;;;;;;;;;;;;;;;;
2023/01/18 19:21:37;;;;;;;;;;;;;;;;;;;;;
2023/01/18 19:27:35;;;;;;;17.70;11.70;;;;;;;5.68;64.48;97406.89;232645;1195;138276;-67
2023/01/18 19:34:24;;;;;;;19.20;12.40;;;;;;;5.47;64.84;97423.80;232747;1195;138467;-67
2023/01/18 19:40:14;;;;;;;18.10;11.90;;;;;;;5.27;65.44;97433.77;232994;1192;139565;-68
2023/01/18 20:07:42;;;;;;;24.80;15.90;;;;;;;5.25;66.74;97459.71;231322;1202;140819;-69
2023/01/18 20:13:30;;;;;;;;;;;;;;;;;;;;;
2023/01/18 20:19:41;;;;;;;26.90;15.60;;;;;;;4.99;66.57;97488.85;231743;1199;138803;-68
2023/01/18 20:25:54;;;;;;;;;;;;;;;;;;;;;
2023/01/18 20:31:41;;;;;;;60.10;40.40;;;;;;;4.84;67.34;97498.63;234850;1192;138687;-66
2023/01/18 20:37:54;;;;;;;22.60;14.90;;;;;;;4.81;67.68;97493.88;235215;1191;139006;-67
2023/01/18 20:44:09;;;;;;;27.40;15.40;;;;;;;4.67;67.21;97491.44;235180;1193;139062;-65
2023/01/18 20:50:38;;;;;;;27.30;16.40;;;;;;;4.52;67.43;97503.64;235151;1192;140223;-67
2023/01/18 20:57:22;;;;;;;31.60;18.80;;;;;;;4.41;67.52;97505.00;234873;1193;138906;-66
2023/01/18 21:03:04;;;;;;;31.20;19.40;;;;;;;4.31;67.36;97502.25;235114;1191;138933;-66
2023/01/18 21:09:52;;;;;;;28.90;17.70;;;;;;;4.18;67.63;97519.92;234572;1192;139102;-66
2023/01/18 21:16:01;;;;;;;31.60;19.30;;;;;;;4.13;67.96;97541.98;234852;1192;139620;-68
2023/01/18 21:29:19;;;;;;;69.60;47.50;;;;;;;5.04;67.45;97551.48;234161;1195;140466;-67
2023/01/18 21:35:57;;;;;;;;;;;;;;;;;;;;;
2023/01/18 21:55:57;;;;;;;38.20;23.60;;;;;;;3.99;67.63;97590.86;234232;1196;139083;-71
2023/01/18 22:02:25;;;;;;;60.50;40.10;;;;;;;5.65;71.59;97584.73;234140;1196;139730;-67
2023/01/18 22:08:29;;;;;;;;;;;;;;;;;;;;;
2023/01/18 22:15:00;;;;;;;33.10;22.00;;;;;;;4.84;65.30;97642.51;235143;1193;142444;-68
2023/01/18 22:21:46;;;;;;;34.70;22.00;;;;;;;4.41;66.07;97647.91;235020;1192;139830;-66
2023/01/18 22:27:50;;;;;;;;;;;;;;;;;;;;;
2023/01/18 22:35:57;;;;;;;37.40;21.20;;;;;;;4.12;67.50;97645.41;234366;1193;139518;-66
